sensor_id;sensor_type;location;lat;lon;timestamp;pressure;altitude;pressure_sealevel;temperature;humidity
22753;BME280;11543;43.144;24.684;2023-02-11T00:02:01;100774.22;;;-0.20;57.25
22753;BME280;11543;43.144;24.684;2023-02-11T00:04:29;100781.16;;;-0.16;57.26
22753;BME280;11543;43.144;24.684;2023-02-11T00:06:54;100769.91;;;-0.22;57.53
22753;BME280;11543;43.144;24.684;2023-02-11T00:09:20;100781.16;;;-0.16;57.73
22753;BME280;11543;43.144;24.684;2023-02-11T00:11:45;100773.28;;;-0.17;57.63
22753;BME280;11543;43.144;24.684;2023-02-11T00:14:10;100750.69;;;-0.27;57.64
22753;BME280;11543;43.144;24.684;2023-02-11T00:16:36;100783.72;;;-0.13;57.41
22753;BME280;11543;43.144;24.684;2023-02-11T00:19:02;100793.19;;;-0.06;57.90
22753;BME280;11543;43.144;24.684;2023-02-11T00:21:30;100762.03;;;-0.24;57.64
22753;BME280;11543;43.144;24.684;2023-02-11T00:23:59;100755.88;;;-0.24;57.72
22753;BME280;11543;43.144;24.684;2023-02-11T00:26:32;100786.28;;;-0.10;57.20
22753;BME280;11543;43.144;24.684;2023-02-11T00:29:00;100782.22;;;-0.23;57.44
22753;BME280;11543;43.144;24.684;2023-02-11T00:31:26;100770.69;;;-0.19;57.39
22753;BME280;11543;43.144;24.684;2023-02-11T00:33:52;100757.94;;;-0.36;57.71
22753;BME280;11543;43.144;24.684;2023-02-11T00:36:23;100764.16;;;-0.38;57.56
22753;BME280;11543;43.144;24.684;2023-02-11T00:38:51;100799.03;;;-0.27;57.84
22753;BME280;11543;43.144;24.684;2023-02-11T00:41:17;100778.31;;;-0.42;57.96
22753;BME280;11543;43.144;24.684;2023-02-11T00:43:42;100780.13;;;-0.44;58.16
22753;BME280;11543;43.144;24.684;2023-02-11T00:46:09;100786.25;;;-0.42;57.53
22753;BME280;11543;43.144;24.684;2023-02-11T00:48:34;100742.03;;;-0.67;57.70
22753;BME280;11543;43.144;24.684;2023-02-11T00:51:00;100755.75;;;-0.52;57.62
22753;BME280;11543;43.144;24.684;2023-02-11T00:53:26;100741.97;;;-0.63;57.90
22753;BME280;11543;43.144;24.684;2023-02-11T00:55:52;100754.94;;;-0.56;57.87
22753;BME280;11543;43.144;24.684;2023-02-11T00:58:17;100768.00;;;-0.51;58.02
22753;BME280;11543;43.144;24.684;2023-02-11T01:00:42;100775.03;;;-0.50;57.88
22753;BME280;11543;43.144;24.684;2023-02-11T01:03:08;100768.41;;;-0.67;57.95
22753;BME280;11543;43.144;24.684;2023-02-11T01:05:34;100765.72;;;-0.65;58.08
22753;BME280;11543;43.144;24.684;2023-02-11T01:07:59;100767.53;;;-0.67;57.87
22753;BME280;11543;43.144;24.684;2023-02-11T01:10:25;100756.19;;;-0.71;58.18
22753;BME280;11543;43.144;24.684;2023-02-11T01:12:50;100737.06;;;-0.79;57.96
22753;BME280;11543;43.144;24.684;2023-02-11T01:15:17;100754.53;;;-0.75;57.91
22753;BME280;11543;43.144;24.684;2023-02-11T01:17:43;100734.63;;;-0.86;57.79
22753;BME280;11543;43.144;24.684;2023-02-11T01:20:13;100751.16;;;-0.80;57.99
22753;BME280;11543;43.144;24.684;2023-02-11T01:22:39;100759.97;;;-0.81;58.09
22753;BME280;11543;43.144;24.684;2023-02-11T01:25:06;100775.31;;;-0.62;57.86
22753;BME280;11543;43.144;24.684;2023-02-11T01:27:32;100768.53;;;-0.73;57.80
22753;BME280;11543;43.144;24.684;2023-02-11T01:29:57;100745.94;;;-0.83;57.92
22753;BME280;11543;43.144;24.684;2023-02-11T01:32:22;100725.22;;;-0.98;58.19
22753;BME280;11543;43.144;24.684;2023-02-11T01:34:49;100747.81;;;-0.88;58.15
22753;BME280;11543;43.144;24.684;2023-02-11T01:37:15;100766.25;;;-0.86;57.84
22753;BME280;11543;43.144;24.684;2023-02-11T01:39:40;100732.34;;;-1.03;57.45
22753;BME280;11543;43.144;24.684;2023-02-11T01:42:06;100732.31;;;-1.02;57.62
22753;BME280;11543;43.144;24.684;2023-02-11T01:44:35;100739.38;;;-1.02;57.80
22753;BME280;11543;43.144;24.684;2023-02-11T01:47:01;100739.38;;;-1.02;57.93
22753;BME280;11543;43.144;24.684;2023-02-11T01:49:38;100714.91;;;-1.07;57.79
22753;BME280;11543;43.144;24.684;2023-02-11T01:54:35;100735.81;;;-1.01;58.07
22753;BME280;11543;43.144;24.684;2023-02-11T01:57:36;100737.63;;;-1.03;58.13
22753;BME280;11543;43.144;24.684;2023-02-11T02:00:16;100774.94;;;-0.83;58.11
22753;BME280;11543;43.144;24.684;2023-02-11T02:10:50;100767.28;;;-0.95;58.28
22753;BME280;11543;43.144;24.684;2023-02-11T02:13:19;100776.81;;;-0.89;58.09
22753;BME280;11543;43.144;24.684;2023-02-11T02:16:06;100741.38;;;-1.13;58.02
22753;BME280;11543;43.144;24.684;2023-02-11T02:40:14;100763.00;;;-1.38;57.17
22753;BME280;11543;43.144;24.684;2023-02-11T02:42:43;100754.41;;;-1.46;56.82
22753;BME280;11543;43.144;24.684;2023-02-11T02:45:09;100736.88;;;-1.47;57.20
22753;BME280;11543;43.144;24.684;2023-02-11T02:47:35;100740.34;;;-1.45;57.53
22753;BME280;11543;43.144;24.684;2023-02-11T02:50:02;100731.53;;;-1.44;58.01
22753;BME280;11543;43.144;24.684;2023-02-11T02:55:21;100756.59;;;-1.26;58.10
22753;BME280;11543;43.144;24.684;2023-02-11T03:00:32;100750.53;;;-1.30;57.67
22753;BME280;11543;43.144;24.684;2023-02-11T03:03:17;100752.34;;;-1.32;57.56
22753;BME280;11543;43.144;24.684;2023-02-11T03:05:56;100740.41;;;-1.48;57.74
22753;BME280;11543;43.144;24.684;2023-02-11T03:08:33;100738.53;;;-1.43;58.20
22753;BME280;11543;43.144;24.684;2023-02-11T03:11:01;100738.59;;;-1.46;57.72
22753;BME280;11543;43.144;24.684;2023-02-11T03:13:30;100739.31;;;-1.38;58.17
22753;BME280;11543;43.144;24.684;2023-02-11T03:16:00;100733.22;;;-1.40;58.10
22753;BME280;11543;43.144;24.684;2023-02-11T03:18:29;100738.34;;;-1.34;58.38
22753;BME280;11543;43.144;24.684;2023-02-11T03:20:55;100760.84;;;-1.20;58.14
22753;BME280;11543;43.144;24.684;2023-02-11T03:23:30;100750.41;;;-1.23;58.03
22753;BME280;11543;43.144;24.684;2023-02-11T03:26:03;100720.06;;;-1.41;57.84
22753;BME280;11543;43.144;24.684;2023-02-11T03:28:49;100733.22;;;-1.40;58.20
22753;BME280;11543;43.144;24.684;2023-02-11T03:34:11;100749.66;;;-1.30;57.97
22753;BME280;11543;43.144;24.684;2023-02-11T03:39:12;100719.56;;;-1.57;57.33
22753;BME280;11543;43.144;24.684;2023-02-11T03:41:40;100733.28;;;-1.43;57.54
22753;BME280;11543;43.144;24.684;2023-02-11T03:44:07;100726.34;;;-1.47;57.64
22753;BME280;11543;43.144;24.684;2023-02-11T03:46:36;100745.34;;;-1.33;57.64
22753;BME280;11543;43.144;24.684;2023-02-11T03:49:09;100737.63;;;-1.42;57.53
22753;BME280;11543;43.144;24.684;2023-02-11T03:51:36;100732.38;;;-1.42;57.47
22753;BME280;11543;43.144;24.684;2023-02-11T03:54:08;100725.69;;;-1.56;57.21
22753;BME280;11543;43.144;24.684;2023-02-11T03:56:41;100721.41;;;-1.62;57.18
22753;BME280;11543;43.144;24.684;2023-02-11T03:59:10;100728.34;;;-1.58;57.83
22753;BME280;11543;43.144;24.684;2023-02-11T04:01:35;100723.94;;;-1.57;57.61
22753;BME280;11543;43.144;24.684;2023-02-11T04:04:01;100726.41;;;-1.50;57.94
22753;BME280;11543;43.144;24.684;2023-02-11T04:06:26;100745.41;;;-1.36;58.10
22753;BME280;11543;43.144;24.684;2023-02-11T04:08:52;100698.63;;;-1.63;58.44
22753;BME280;11543;43.144;24.684;2023-02-11T04:11:17;100700.28;;;-1.59;58.08
22753;BME280;11543;43.144;24.684;2023-02-11T04:13:43;100722.81;;;-1.46;58.21
22753;BME280;11543;43.144;24.684;2023-02-11T04:16:08;100726.34;;;-1.47;57.73
22753;BME280;11543;43.144;24.684;2023-02-11T04:18:33;100711.66;;;-1.57;57.64
22753;BME280;11543;43.144;24.684;2023-02-11T04:20:59;100717.69;;;-1.52;57.66
22753;BME280;11543;43.144;24.684;2023-02-11T04:23:24;100689.97;;;-1.68;57.80
22753;BME280;11543;43.144;24.684;2023-02-11T04:25:50;100726.34;;;-1.47;57.79
22753;BME280;11543;43.144;24.684;2023-02-11T04:28:15;100726.28;;;-1.44;57.81
22753;BME280;11543;43.144;24.684;2023-02-11T04:30:41;100726.34;;;-1.47;57.89
22753;BME280;11543;43.144;24.684;2023-02-11T04:33:06;100710.75;;;-1.56;57.85
22753;BME280;11543;43.144;24.684;2023-02-11T04:35:31;100722.09;;;-1.52;57.62
22753;BME280;11543;43.144;24.684;2023-02-11T04:37:57;100725.69;;;-1.56;57.15
22753;BME280;11543;43.144;24.684;2023-02-11T04:40:22;100705.75;;;-1.68;57.13
22753;BME280;11543;43.144;24.684;2023-02-11T04:42:48;100723.94;;;-1.57;57.08
22753;BME280;11543;43.144;24.684;2023-02-11T04:45:13;100696.19;;;-1.74;57.31
22753;BME280;11543;43.144;24.684;2023-02-11T04:47:39;100723.16;;;-1.61;57.59
22753;BME280;11543;43.144;24.684;2023-02-11T04:50:04;100683.28;;;-1.84;57.90
22753;BME280;11543;43.144;24.684;2023-02-11T04:52:30;100723.09;;;-1.58;57.78
22753;BME280;11543;43.144;24.684;2023-02-11T04:54:55;100734.44;;;-1.56;57.89
22753;BME280;11543;43.144;24.684;2023-02-11T04:57:21;100710.25;;;-1.75;57.80
22753;BME280;11543;43.144;24.684;2023-02-11T04:59:46;100700.78;;;-1.83;57.44
22753;BME280;11543;43.144;24.684;2023-02-11T05:02:13;100707.84;;;-1.85;57.11
22753;BME280;11543;43.144;24.684;2023-02-11T05:04:38;100681.03;;;-2.03;57.09
22753;BME280;11543;43.144;24.684;2023-02-11T05:07:04;100681.66;;;-1.92;57.31
22753;BME280;11543;43.144;24.684;2023-02-11T05:09:29;100684.25;;;-1.90;57.79
22753;BME280;11543;43.144;24.684;2023-02-11T05:11:55;100665.03;;;-1.92;57.77
22753;BME280;11543;43.144;24.684;2023-02-11T05:14:20;100662.41;;;-1.94;58.07
22753;BME280;11543;43.144;24.684;2023-02-11T05:16:45;100672.78;;;-1.86;58.29
22753;BME280;11543;43.144;24.684;2023-02-11T05:19:11;100683.97;;;-1.76;58.32
22753;BME280;11543;43.144;24.684;2023-02-11T05:21:36;100677.88;;;-1.78;58.38
22753;BME280;11543;43.144;24.684;2023-02-11T05:24:02;100681.31;;;-1.73;58.18
22753;BME280;11543;43.144;24.684;2023-02-11T05:26:27;100675.19;;;-1.75;58.00
22753;BME280;11543;43.144;24.684;2023-02-11T05:28:53;100665.69;;;-1.82;57.84
22753;BME280;11543;43.144;24.684;2023-02-11T05:31:18;100683.97;;;-1.76;57.97
22753;BME280;11543;43.144;24.684;2023-02-11T05:33:45;100686.59;;;-1.76;58.30
22753;BME280;11543;43.144;24.684;2023-02-11T05:36:11;100699.59;;;-1.67;58.08
22753;BME280;11543;43.144;24.684;2023-02-11T05:38:37;100702.09;;;-1.61;58.13
22753;BME280;11543;43.144;24.684;2023-02-11T05:41:04;100702.06;;;-1.59;57.96
22753;BME280;11543;43.144;24.684;2023-02-11T05:43:32;100697.03;;;-1.70;57.85
22753;BME280;11543;43.144;24.684;2023-02-11T05:45:59;100688.38;;;-1.77;58.15
22753;BME280;11543;43.144;24.684;2023-02-11T05:48:24;100669.41;;;-1.93;57.74
22753;BME280;11543;43.144;24.684;2023-02-11T05:50:50;100718.09;;;-1.70;57.64
22753;BME280;11543;43.144;24.684;2023-02-11T05:53:15;100711.13;;;-1.74;57.45
22753;BME280;11543;43.144;24.684;2023-02-11T05:55:41;100673.13;;;-2.03;57.45
22753;BME280;11543;43.144;24.684;2023-02-11T05:58:08;100678.34;;;-2.00;57.44
22753;BME280;11543;43.144;24.684;2023-02-11T06:00:34;100680.13;;;-2.02;57.42
22753;BME280;11543;43.144;24.684;2023-02-11T06:02:59;100661.78;;;-2.05;57.49
22753;BME280;11543;43.144;24.684;2023-02-11T06:05:25;100664.59;;;-2.14;57.07
22753;BME280;11543;43.144;24.684;2023-02-11T06:07:50;100662.88;;;-2.15;57.50
22753;BME280;11543;43.144;24.684;2023-02-11T06:10:18;100663.72;;;-2.14;57.49
22753;BME280;11543;43.144;24.684;2023-02-11T06:12:47;100695.69;;;-1.91;58.01
22753;BME280;11543;43.144;24.684;2023-02-11T06:15:12;100667.06;;;-2.06;58.16
22753;BME280;11543;43.144;24.684;2023-02-11T06:17:38;100694.72;;;-1.87;58.14
22753;BME280;11543;43.144;24.684;2023-02-11T06:20:06;100688.66;;;-1.90;57.90
22753;BME280;11543;43.144;24.684;2023-02-11T06:22:32;100697.16;;;-1.78;58.21
22753;BME280;11543;43.144;24.684;2023-02-11T06:25:00;100667.69;;;-1.94;58.30
22753;BME280;11543;43.144;24.684;2023-02-11T06:27:26;100646.91;;;-2.06;58.35
22753;BME280;11543;43.144;24.684;2023-02-11T06:29:52;100659.84;;;-1.97;58.70
22753;BME280;11543;43.144;24.684;2023-02-11T06:32:19;100708.22;;;-1.61;58.42
22753;BME280;11543;43.144;24.684;2023-02-11T06:34:46;100684.81;;;-1.74;58.69
22753;BME280;11543;43.144;24.684;2023-02-11T06:37:11;100656.03;;;-1.82;58.75
22753;BME280;11543;43.144;24.684;2023-02-11T06:39:40;100636.19;;;-1.97;58.85
22753;BME280;11543;43.144;24.684;2023-02-11T06:42:05;100645.75;;;-1.93;59.08
22753;BME280;11543;43.144;24.684;2023-02-11T06:44:31;100623.88;;;-1.95;59.09
22753;BME280;11543;43.144;24.684;2023-02-11T06:46:56;100644.75;;;-1.87;59.27
22753;BME280;11543;43.144;24.684;2023-02-11T06:49:25;100651.78;;;-1.87;59.42
22753;BME280;11543;43.144;24.684;2023-02-11T06:51:53;100657.97;;;-1.90;59.42
22753;BME280;11543;43.144;24.684;2023-02-11T06:54:19;100702.09;;;-1.61;59.43
22753;BME280;11543;43.144;24.684;2023-02-11T06:56:45;100675.91;;;-1.67;59.74
22753;BME280;11543;43.144;24.684;2023-02-11T06:59:15;100694.91;;;-1.53;59.82
22753;BME280;11543;43.144;24.684;2023-02-11T07:01:43;100706.84;;;-1.38;60.26
22753;BME280;11543;43.144;24.684;2023-02-11T07:04:16;100706.81;;;-1.37;60.46
22753;BME280;11543;43.144;24.684;2023-02-11T07:06:42;100647.88;;;-1.68;60.52
22753;BME280;11543;43.144;24.684;2023-02-11T07:09:08;100679.94;;;-1.51;60.57
22753;BME280;11543;43.144;24.684;2023-02-11T07:11:33;100654.94;;;-1.70;60.41
22753;BME280;11543;43.144;24.684;2023-02-11T07:14:04;100693.22;;;-1.57;60.01
22753;BME280;11543;43.144;24.684;2023-02-11T07:16:31;100674.19;;;-1.68;60.67
22753;BME280;11543;43.144;24.684;2023-02-11T07:18:57;100700.09;;;-1.50;60.42
22753;BME280;11543;43.144;24.684;2023-02-11T07:21:22;100721.00;;;-1.44;60.42
22753;BME280;11543;43.144;24.684;2023-02-11T07:23:51;100718.75;;;-1.61;60.46
22753;BME280;11543;43.144;24.684;2023-02-11T07:26:20;100701.19;;;-1.60;60.59
22753;BME280;11543;43.144;24.684;2023-02-11T07:28:50;100688.34;;;-1.75;60.67
22753;BME280;11543;43.144;24.684;2023-02-11T07:31:24;100683.13;;;-1.78;61.23
22753;BME280;11543;43.144;24.684;2023-02-11T07:33:52;100652.78;;;-1.95;60.68
22753;BME280;11543;43.144;24.684;2023-02-11T07:36:18;100701.53;;;-1.77;61.19
22753;BME280;11543;43.144;24.684;2023-02-11T07:38:44;100652.97;;;-2.02;61.07
22753;BME280;11543;43.144;24.684;2023-02-11T07:41:12;100687.69;;;-1.86;61.48
22753;BME280;11543;43.144;24.684;2023-02-11T07:43:38;100716.28;;;-1.68;61.70
22753;BME280;11543;43.144;24.684;2023-02-11T07:46:09;100672.88;;;-1.90;61.86
22753;BME280;11543;43.144;24.684;2023-02-11T07:48:35;100669.47;;;-1.96;62.00
22753;BME280;11543;43.144;24.684;2023-02-11T07:51:08;100698.84;;;-1.75;62.45
22753;BME280;11543;43.144;24.684;2023-02-11T07:53:35;100681.66;;;-1.92;62.22
22753;BME280;11543;43.144;24.684;2023-02-11T07:56:02;100691.19;;;-1.86;62.54
22753;BME280;11543;43.144;24.684;2023-02-11T07:58:27;100675.53;;;-1.92;62.91
22753;BME280;11543;43.144;24.684;2023-02-11T08:00:53;100690.06;;;-1.74;63.46
22753;BME280;11543;43.144;24.684;2023-02-11T08:03:18;100675.16;;;-1.74;63.40
22753;BME280;11543;43.144;24.684;2023-02-11T08:05:44;100672.44;;;-1.69;63.88
22753;BME280;11543;43.144;24.684;2023-02-11T08:08:09;100670.78;;;-1.73;63.50
22753;BME280;11543;43.144;24.684;2023-02-11T08:10:35;100694.25;;;-1.64;63.85
22753;BME280;11543;43.144;24.684;2023-02-11T08:13:01;100708.81;;;-1.48;64.05
22753;BME280;11543;43.144;24.684;2023-02-11T08:15:35;100676.03;;;-1.73;64.04
22753;BME280;11543;43.144;24.684;2023-02-11T08:18:00;100622.13;;;-1.96;64.72
22753;BME280;11543;43.144;24.684;2023-02-11T08:20:26;100652.91;;;-1.59;64.80
22753;BME280;11543;43.144;24.684;2023-02-11T08:22:51;100684.75;;;-1.31;64.35
22753;BME280;11543;43.144;24.684;2023-02-11T08:25:17;100631.72;;;-1.53;64.19
22753;BME280;11543;43.144;24.684;2023-02-11T08:27:42;100693.16;;;-1.15;64.28
22753;BME280;11543;43.144;24.684;2023-02-11T08:30:08;100702.63;;;-1.08;64.46
22753;BME280;11543;43.144;24.684;2023-02-11T08:32:34;100654.06;;;-1.34;64.69
22753;BME280;11543;43.144;24.684;2023-02-11T08:34:59;100689.41;;;-1.07;64.59
22753;BME280;11543;43.144;24.684;2023-02-11T08:37:25;100679.00;;;-1.11;64.67
22753;BME280;11543;43.144;24.684;2023-02-11T08:39:50;100667.84;;;-1.22;64.67
22753;BME280;11543;43.144;24.684;2023-02-11T08:42:16;100638.06;;;-1.24;65.00
22753;BME280;11543;43.144;24.684;2023-02-11T08:44:42;100668.34;;;-1.07;64.81
22753;BME280;11543;43.144;24.684;2023-02-11T08:47:08;100668.19;;;-1.01;65.46
22753;BME280;11543;43.144;24.684;2023-02-11T08:49:33;100690.34;;;-0.72;65.25
22753;BME280;11543;43.144;24.684;2023-02-11T08:52:00;100676.97;;;-0.65;65.29
22753;BME280;11543;43.144;24.684;2023-02-11T08:54:31;100645.66;;;-0.77;65.57
22753;BME280;11543;43.144;24.684;2023-02-11T08:56:56;100651.38;;;-0.61;65.88
22753;BME280;11543;43.144;24.684;2023-02-11T08:59:22;100645.09;;;-0.55;65.61
22753;BME280;11543;43.144;24.684;2023-02-11T09:01:50;100658.59;;;-0.35;66.01
22753;BME280;11543;43.144;24.684;2023-02-11T09:04:15;100661.72;;;-0.21;66.23
22753;BME280;11543;43.144;24.684;2023-02-11T09:06:41;100654.28;;;-0.07;67.10
22753;BME280;11543;43.144;24.684;2023-02-11T09:09:11;100655.59;;;0.10;67.11
22753;BME280;11543;43.144;24.684;2023-02-11T09:11:44;100615.59;;;-0.08;66.37
22753;BME280;11543;43.144;24.684;2023-02-11T09:14:20;100633.66;;;0.08;66.02
22753;BME280;11543;43.144;24.684;2023-02-11T09:16:46;100612.63;;;0.05;65.97
22753;BME280;11543;43.144;24.684;2023-02-11T09:19:12;100650.63;;;0.28;65.12
22753;BME280;11543;43.144;24.684;2023-02-11T09:21:37;100648.03;;;0.27;64.07
22753;BME280;11543;43.144;24.684;2023-02-11T09:24:03;100646.97;;;0.32;63.93
22753;BME280;11543;43.144;24.684;2023-02-11T09:26:32;100659.16;;;0.37;63.35
22753;BME280;11543;43.144;24.684;2023-02-11T09:29:01;100657.94;;;0.48;63.44
22753;BME280;11543;43.144;24.684;2023-02-11T09:31:28;100653.97;;;0.34;64.13
22753;BME280;11543;43.144;24.684;2023-02-11T09:33:57;100632.97;;;-0.01;64.69
22753;BME280;11543;43.144;24.684;2023-02-11T09:36:25;100632.22;;;-0.04;66.06
22753;BME280;11543;43.144;24.684;2023-02-11T09:38:53;100619.25;;;-0.12;66.47
22753;BME280;11543;43.144;24.684;2023-02-11T09:41:24;100636.28;;;0.08;66.98
22753;BME280;11543;43.144;24.684;2023-02-11T09:43:59;100626.06;;;-0.05;68.11
22753;BME280;11543;43.144;24.684;2023-02-11T09:46:30;100601.88;;;-0.19;68.80
22753;BME280;11543;43.144;24.684;2023-02-11T09:48:56;100627.88;;;-0.07;69.20
22753;BME280;11543;43.144;24.684;2023-02-11T09:51:34;100621.31;;;-0.23;71.76
22753;BME280;11543;43.144;24.684;2023-02-11T09:54:12;100608.28;;;-0.27;72.99
22753;BME280;11543;43.144;24.684;2023-02-11T09:56:41;100591.75;;;-0.34;73.23
22753;BME280;11543;43.144;24.684;2023-02-11T09:59:12;100593.31;;;-0.27;72.21
22753;BME280;11543;43.144;24.684;2023-02-11T10:02:00;100602.72;;;-0.18;72.21
22753;BME280;11543;43.144;24.684;2023-02-11T10:07:55;100598.03;;;-0.09;72.22
22753;BME280;11543;43.144;24.684;2023-02-11T10:10:48;100576.94;;;-0.09;72.46
22753;BME280;11543;43.144;24.684;2023-02-11T10:16:05;100579.81;;;0.13;72.10
22753;BME280;11543;43.144;24.684;2023-02-11T10:22:08;100569.84;;;0.23;73.05
22753;BME280;11543;43.144;24.684;2023-02-11T10:24:37;100527.00;;;0.15;72.50
22753;BME280;11543;43.144;24.684;2023-02-11T10:27:23;100536.66;;;0.42;70.78
22753;BME280;11543;43.144;24.684;2023-02-11T10:29:58;100534.13;;;0.39;71.44
22753;BME280;11543;43.144;24.684;2023-02-11T10:32:37;100539.72;;;0.56;71.56
22753;BME280;11543;43.144;24.684;2023-02-11T10:35:14;100541.22;;;0.63;71.54
22753;BME280;11543;43.144;24.684;2023-02-11T10:37:40;100522.13;;;0.55;70.71
22753;BME280;11543;43.144;24.684;2023-02-11T10:40:17;100514.22;;;0.55;70.59
22753;BME280;11543;43.144;24.684;2023-02-11T10:42:47;100480.09;;;0.49;70.60
22753;BME280;11543;43.144;24.684;2023-02-11T10:45:43;100494.38;;;0.69;69.96
22753;BME280;11543;43.144;24.684;2023-02-11T10:48:36;100507.38;;;1.01;68.34
22753;BME280;11543;43.144;24.684;2023-02-11T10:51:11;100505.31;;;1.09;67.88
22753;BME280;11543;43.144;24.684;2023-02-11T10:53:38;100508.53;;;1.17;67.76
22753;BME280;11543;43.144;24.684;2023-02-11T10:56:06;100498.56;;;1.25;68.67
22753;BME280;11543;43.144;24.684;2023-02-11T10:58:45;100496.25;;;1.40;68.37
22753;BME280;11543;43.144;24.684;2023-02-11T11:01:12;100454.28;;;1.31;66.65
22753;BME280;11543;43.144;24.684;2023-02-11T11:03:39;100490.28;;;1.58;67.60
22753;BME280;11543;43.144;24.684;2023-02-11T11:06:10;100475.44;;;1.54;67.41
22753;BME280;11543;43.144;24.684;2023-02-11T11:08:46;100483.22;;;1.58;67.47
22753;BME280;11543;43.144;24.684;2023-02-11T11:11:15;100483.16;;;1.60;67.20
22753;BME280;11543;43.144;24.684;2023-02-11T11:14:01;100480.03;;;1.72;65.57
22753;BME280;11543;43.144;24.684;2023-02-11T11:16:34;100462.97;;;1.57;67.38
22753;BME280;11543;43.144;24.684;2023-02-11T11:21:40;100445.03;;;1.42;68.77
22753;BME280;11543;43.144;24.684;2023-02-11T11:24:38;100445.09;;;1.41;68.38
22753;BME280;11543;43.144;24.684;2023-02-11T11:27:04;100431.31;;;1.33;68.72
22753;BME280;11543;43.144;24.684;2023-02-11T11:29:59;100453.25;;;1.58;68.64
22753;BME280;11543;43.144;24.684;2023-02-11T11:32:31;100439.34;;;1.53;68.61
22753;BME280;11543;43.144;24.684;2023-02-11T11:35:03;100447.84;;;1.61;68.80
22753;BME280;11543;43.144;24.684;2023-02-11T11:37:34;100439.34;;;1.53;69.47
22753;BME280;11543;43.144;24.684;2023-02-11T11:40:07;100444.50;;;1.56;69.80
22753;BME280;11543;43.144;24.684;2023-02-11T11:42:35;100425.44;;;1.48;69.72
22753;BME280;11543;43.144;24.684;2023-02-11T11:50:57;100431.34;;;1.54;70.31
22753;BME280;11543;43.144;24.684;2023-02-11T11:53:32;100428.00;;;1.49;71.51
22753;BME280;11543;43.144;24.684;2023-02-11T11:56:12;100414.50;;;1.57;70.70
22753;BME280;11543;43.144;24.684;2023-02-11T11:58:39;100377.88;;;1.46;71.00
22753;BME280;11543;43.144;24.684;2023-02-11T12:26:21;100374.38;;;2.32;69.39
22753;BME280;11543;43.144;24.684;2023-02-11T12:34:56;100366.88;;;2.41;68.46
22753;BME280;11543;43.144;24.684;2023-02-11T12:37:31;100357.88;;;2.45;68.90
22753;BME280;11543;43.144;24.684;2023-02-11T12:40:18;100349.47;;;2.56;68.01
22753;BME280;11543;43.144;24.684;2023-02-11T13:02:25;100318.59;;;3.32;67.37
22753;BME280;11543;43.144;24.684;2023-02-11T13:04:55;100297.81;;;3.23;66.85
22753;BME280;11543;43.144;24.684;2023-02-11T13:07:32;100311.41;;;3.53;66.41
22753;BME280;11543;43.144;24.684;2023-02-11T13:10:04;100314.63;;;3.59;65.68
22753;BME280;11543;43.144;24.684;2023-02-11T13:12:34;100285.44;;;3.59;65.49
22753;BME280;11543;43.144;24.684;2023-02-11T13:15:19;100297.63;;;3.63;65.46
22753;BME280;11543;43.144;24.684;2023-02-11T13:23:29;100289.38;;;3.87;65.40
22753;BME280;11543;43.144;24.684;2023-02-11T13:29:21;100275.84;;;3.74;65.22
22753;BME280;11543;43.144;24.684;2023-02-11T13:31:54;100286.72;;;3.87;65.28
22753;BME280;11543;43.144;24.684;2023-02-11T13:37:22;100262.50;;;3.93;65.49
22753;BME280;11543;43.144;24.684;2023-02-11T13:40:04;100275.63;;;4.13;65.60
22753;BME280;11543;43.144;24.684;2023-02-11T13:42:33;100258.91;;;4.11;64.76
22753;BME280;11543;43.144;24.684;2023-02-11T13:45:37;100252.66;;;4.12;64.99
22753;BME280;11543;43.144;24.684;2023-02-11T13:48:04;100266.41;;;4.03;65.02
22753;BME280;11543;43.144;24.684;2023-02-11T13:50:37;100256.09;;;3.79;65.34
22753;BME280;11543;43.144;24.684;2023-02-11T13:53:05;100255.94;;;3.82;66.01
22753;BME280;11543;43.144;24.684;2023-02-11T13:55:34;100233.63;;;3.69;65.85
22753;BME280;11543;43.144;24.684;2023-02-11T14:11:42;100253.59;;;3.59;66.53
22753;BME280;11543;43.144;24.684;2023-02-11T14:14:27;100253.91;;;3.53;67.26
22753;BME280;11543;43.144;24.684;2023-02-11T14:19:37;100241.59;;;3.33;67.75
22753;BME280;11543;43.144;24.684;2023-02-11T14:27:17;100239.16;;;3.29;66.91
22753;BME280;11543;43.144;24.684;2023-02-11T14:35:38;100233.16;;;3.25;67.92
22753;BME280;11543;43.144;24.684;2023-02-11T14:38:30;100230.72;;;3.20;67.88
22753;BME280;11543;43.144;24.684;2023-02-11T14:41:24;100219.00;;;3.07;68.20
22753;BME280;11543;43.144;24.684;2023-02-11T14:44:03;100219.00;;;3.07;68.30
22753;BME280;11543;43.144;24.684;2023-02-11T14:46:31;100213.75;;;3.06;68.05
22753;BME280;11543;43.144;24.684;2023-02-11T14:49:05;100194.09;;;2.93;68.19
22753;BME280;11543;43.144;24.684;2023-02-11T14:51:39;100187.91;;;2.92;68.03
22753;BME280;11543;43.144;24.684;2023-02-11T14:54:14;100219.28;;;3.01;68.17
22753;BME280;11543;43.144;24.684;2023-02-11T14:56:41;100225.38;;;3.03;68.29
22753;BME280;11543;43.144;24.684;2023-02-11T14:59:28;100205.56;;;2.93;68.39
22753;BME280;11543;43.144;24.684;2023-02-11T15:01:54;100208.13;;;2.95;68.32
22753;BME280;11543;43.144;24.684;2023-02-11T15:06:49;100207.56;;;2.88;68.41
22753;BME280;11543;43.144;24.684;2023-02-11T15:09:18;100195.53;;;2.81;68.37
22753;BME280;11543;43.144;24.684;2023-02-11T15:11:46;100199.13;;;2.80;68.00
22753;BME280;11543;43.144;24.684;2023-02-11T15:14:29;100212.06;;;2.86;68.17
22753;BME280;11543;43.144;24.684;2023-02-11T15:16:56;100226.41;;;2.82;67.96
22753;BME280;11543;43.144;24.684;2023-02-11T15:19:32;100221.63;;;2.71;67.84
22753;BME280;11543;43.144;24.684;2023-02-11T15:22:03;100224.34;;;2.70;67.89
22753;BME280;11543;43.144;24.684;2023-02-11T15:24:31;100215.59;;;2.68;67.65
22753;BME280;11543;43.144;24.684;2023-02-11T15:29:41;100213.56;;;2.54;67.32
22753;BME280;11543;43.144;24.684;2023-02-11T15:32:22;100219.00;;;2.51;67.57